createdAt,value
2019-05-14T00:02:21.539Z,20.08
2019-05-14T00:04:51.228Z,14.78
2019-05-14T00:07:22.093Z,15.60
2019-05-14T00:09:51.904Z,15.15
2019-05-14T00:12:22.357Z,15.30
2019-05-14T00:14:51.460Z,15.68
2019-05-14T00:17:21.317Z,15.40
2019-05-14T00:20:06.390Z,15.50
2019-05-14T00:22:24.716Z,15.38
2019-05-14T00:24:54.059Z,17.87
2019-05-14T00:27:23.070Z,17.42
2019-05-14T00:29:51.946Z,15.85
2019-05-14T00:32:21.670Z,15.68
2019-05-14T00:34:51.575Z,15.30
2019-05-14T00:37:21.705Z,15.48
2019-05-14T00:39:52.150Z,16.17
2019-05-14T00:42:21.534Z,15.20
2019-05-14T00:44:58.511Z,16.85
2019-05-14T00:47:26.470Z,17.27
2019-05-14T00:49:54.435Z,15.53
2019-05-14T00:52:22.443Z,19.85
2019-05-14T00:54:52.243Z,15.90
2019-05-14T00:57:21.149Z,16.23
2019-05-14T00:59:49.249Z,16.25
2019-05-14T01:02:17.194Z,16.35
2019-05-14T01:04:45.092Z,15.23
2019-05-14T01:07:13.639Z,16.40
2019-05-14T01:09:42.029Z,16.10
2019-05-14T01:12:12.201Z,16.07
2019-05-14T01:14:42.132Z,18.10
2019-05-14T01:17:11.264Z,16.15
2019-05-14T01:19:42.214Z,16.60
2019-05-14T01:22:09.240Z,17.35
2019-05-14T01:24:37.290Z,15.53
2019-05-14T01:27:05.237Z,16.90
2019-05-14T01:29:33.101Z,15.15
2019-05-14T01:32:01.367Z,15.83
2019-05-14T01:34:29.370Z,16.82
2019-05-14T01:36:57.263Z,16.00
2019-05-14T01:39:25.495Z,16.70
2019-05-14T01:41:55.998Z,15.30
2019-05-14T01:44:23.650Z,18.82
2019-05-14T01:46:52.532Z,15.40
2019-05-14T01:49:22.168Z,18.25
2019-05-14T01:51:51.194Z,14.95
2019-05-14T01:54:21.076Z,15.75
2019-05-14T01:56:48.914Z,15.53
2019-05-14T01:59:16.799Z,15.20
2019-05-14T02:01:44.847Z,15.48
2019-05-14T02:04:12.812Z,15.95
2019-05-14T02:06:41.459Z,21.40
2019-05-14T02:09:11.115Z,15.10
2019-05-14T02:11:41.306Z,15.20
2019-05-14T02:14:11.426Z,16.15
2019-05-14T02:16:38.699Z,15.88
2019-05-14T02:19:06.706Z,15.93
2019-05-14T02:21:34.667Z,16.10
2019-05-14T02:24:05.397Z,15.80
2019-05-14T02:26:33.884Z,16.55
2019-05-14T02:29:02.078Z,14.50
2019-05-14T02:31:32.488Z,15.08
2019-05-14T02:34:00.479Z,17.45
2019-05-14T02:36:30.849Z,15.28
2019-05-14T02:39:00.330Z,16.15
2019-05-14T02:41:29.865Z,15.10
2019-05-14T02:43:59.303Z,15.10
2019-05-14T02:46:29.626Z,15.63
2019-05-14T02:48:59.466Z,15.70
2019-05-14T02:51:29.687Z,16.57
2019-05-14T02:53:59.110Z,17.95
2019-05-14T02:56:29.505Z,18.65
2019-05-14T02:59:00.017Z,15.65
2019-05-14T03:01:30.224Z,15.63
2019-05-14T03:03:59.627Z,16.23
2019-05-14T03:06:29.099Z,16.90
2019-05-14T03:08:56.325Z,15.38
2019-05-14T03:11:29.440Z,15.50
2019-05-14T03:13:55.379Z,16.32
2019-05-14T03:16:31.217Z,18.23
2019-05-14T03:18:53.737Z,16.40
2019-05-14T03:21:23.421Z,16.23
2019-05-14T03:23:51.332Z,20.10
2019-05-14T03:26:19.991Z,18.42
2019-05-14T03:28:49.651Z,17.82
2019-05-14T03:31:22.424Z,21.93
2019-05-14T03:33:52.384Z,17.23
2019-05-14T03:36:23.943Z,15.40
2019-05-14T03:38:49.974Z,22.35
2019-05-14T03:41:19.425Z,17.48
2019-05-14T03:43:49.312Z,17.00
2019-05-14T03:46:15.631Z,19.23
2019-05-14T03:48:43.542Z,18.85
2019-05-14T03:51:12.619Z,18.17
2019-05-14T03:53:55.252Z,17.05
2019-05-14T03:56:11.035Z,17.40
2019-05-14T03:58:39.483Z,19.52
2019-05-14T04:01:09.712Z,17.65
2019-05-14T04:03:39.825Z,23.47
2019-05-14T04:06:10.055Z,15.53
2019-05-14T04:08:41.294Z,16.40
2019-05-14T04:11:12.884Z,16.05
2019-05-14T04:13:41.548Z,16.62
2019-05-14T04:16:10.947Z,17.40
2019-05-14T04:18:40.466Z,19.87
2019-05-14T04:21:10.354Z,20.00
2019-05-14T04:23:39.590Z,19.50
2019-05-14T04:26:09.566Z,19.80
2019-05-14T04:28:39.553Z,24.52
2019-05-14T04:31:11.272Z,21.77
2019-05-14T04:33:40.685Z,25.00
2019-05-14T04:36:09.920Z,19.73
2019-05-14T04:38:40.943Z,23.50
2019-05-14T04:41:10.373Z,21.20
2019-05-14T04:43:40.016Z,18.82
2019-05-14T04:46:10.498Z,21.00
2019-05-14T04:48:43.015Z,20.25
2019-05-14T04:51:09.813Z,19.37
2019-05-14T04:53:41.348Z,21.15
2019-05-14T04:56:09.990Z,18.45
2019-05-14T04:58:40.944Z,20.50
2019-05-14T05:01:09.799Z,21.77
2019-05-14T05:03:39.961Z,20.70
2019-05-14T05:06:09.897Z,22.58
2019-05-14T05:08:39.493Z,18.40
2019-05-14T05:11:09.402Z,17.40
2019-05-14T05:13:39.295Z,17.57
2019-05-14T05:16:06.299Z,20.30
2019-05-14T05:18:35.593Z,18.75
2019-05-14T05:21:05.777Z,17.92
2019-05-14T05:23:34.327Z,18.32
2019-05-14T05:26:02.245Z,19.90
2019-05-14T05:28:30.109Z,17.42
2019-05-14T05:30:58.679Z,19.40
2019-05-14T05:33:29.266Z,18.75
2019-05-14T05:35:59.075Z,20.85
2019-05-14T05:38:29.104Z,19.82
2019-05-14T05:40:57.749Z,19.77
2019-05-14T05:43:28.390Z,18.40
2019-05-14T05:45:55.662Z,18.80
2019-05-14T05:48:23.558Z,20.08
2019-05-14T05:50:51.487Z,20.00
2019-05-14T05:53:19.479Z,18.07
2019-05-14T05:55:48.459Z,19.25
2019-05-14T05:58:19.525Z,17.85
2019-05-14T06:00:46.253Z,18.65
2019-05-14T06:03:14.187Z,17.87
2019-05-14T06:05:42.023Z,18.82
2019-05-14T06:08:09.955Z,21.33
2019-05-14T06:10:39.926Z,19.05
2019-05-14T06:13:08.865Z,19.65
2019-05-14T06:15:47.600Z,19.10
2019-05-14T06:18:17.082Z,21.40
2019-05-14T06:20:38.513Z,20.25
2019-05-14T06:23:08.277Z,19.25
2019-05-14T06:25:35.454Z,19.27
2019-05-14T06:28:03.363Z,17.62
2019-05-14T06:30:32.639Z,19.23
2019-05-14T06:33:00.447Z,19.70
2019-05-14T06:35:28.581Z,18.17
2019-05-14T06:37:58.193Z,19.95
2019-05-14T06:40:28.570Z,17.70
2019-05-14T06:42:55.703Z,18.60
2019-05-14T06:45:23.536Z,17.87
2019-05-14T06:47:51.355Z,19.73
2019-05-14T06:50:19.217Z,20.10
2019-05-14T06:52:49.241Z,19.27
2019-05-14T06:55:18.031Z,19.70
2019-05-14T06:57:48.063Z,19.27
2019-05-14T07:00:15.719Z,19.90
2019-05-14T07:02:44.300Z,21.40
2019-05-14T07:05:12.223Z,20.43
2019-05-14T07:07:40.585Z,21.90
2019-05-14T07:10:09.187Z,18.15
2019-05-14T07:12:38.789Z,21.00
2019-05-14T07:15:09.274Z,19.57
2019-05-14T07:17:38.442Z,22.80
2019-05-14T07:20:08.875Z,19.85
2019-05-14T07:22:38.712Z,20.50
2019-05-14T07:25:06.287Z,21.48
2019-05-14T07:27:34.106Z,21.95
2019-05-14T07:30:01.937Z,19.92
2019-05-14T07:32:29.762Z,19.90
2019-05-14T07:34:59.468Z,20.95
2019-05-14T07:37:28.558Z,22.82
2019-05-14T07:39:57.967Z,20.85
2019-05-14T07:42:28.708Z,18.90
2019-05-14T07:44:55.674Z,20.15
2019-05-14T07:47:23.518Z,21.17
2019-05-14T07:49:51.338Z,20.57
2019-05-14T07:52:19.912Z,19.40
2019-05-14T07:54:48.216Z,21.05
2019-05-14T07:57:16.244Z,18.90
2019-05-14T07:59:44.047Z,18.95
2019-05-14T08:02:12.952Z,20.23
2019-05-14T08:04:40.969Z,20.88
2019-05-14T08:07:09.180Z,22.52
2019-05-14T08:09:38.948Z,20.15
2019-05-14T08:12:09.204Z,21.97
2019-05-14T08:14:45.231Z,19.70
2019-05-14T08:17:08.465Z,20.23
2019-05-14T08:19:35.809Z,20.15
2019-05-14T08:22:03.810Z,19.70
2019-05-14T08:24:31.630Z,21.52
2019-05-14T08:26:59.454Z,21.95
2019-05-14T08:29:28.681Z,23.00
2019-05-14T08:31:58.261Z,21.33
2019-05-14T08:34:28.622Z,24.37
2019-05-14T08:36:55.825Z,18.87
2019-05-14T08:39:23.643Z,20.08
2019-05-14T08:41:59.574Z,20.10
2019-05-14T08:44:21.042Z,22.22
2019-05-14T08:46:48.864Z,22.35
2019-05-14T08:49:18.425Z,20.25
2019-05-14T08:51:49.175Z,18.70
2019-05-14T08:54:16.008Z,19.95
2019-05-14T08:56:43.855Z,19.10
2019-05-14T08:59:11.683Z,19.92
2019-05-14T09:01:44.143Z,18.00
2019-05-14T09:04:11.308Z,20.10
2019-05-14T09:06:39.215Z,18.98
2019-05-14T09:09:09.241Z,18.98
2019-05-14T09:11:44.472Z,18.70
2019-05-14T09:14:10.925Z,17.42
2019-05-14T09:16:42.735Z,19.00
2019-05-14T09:19:08.634Z,18.77
2019-05-14T09:21:39.496Z,20.97
2019-05-14T09:24:05.723Z,18.77
2019-05-14T09:26:33.546Z,17.80
2019-05-14T09:29:17.921Z,18.82
2019-05-14T09:31:31.071Z,17.42
2019-05-14T09:33:59.007Z,17.57
2019-05-14T09:36:28.940Z,17.42
2019-05-14T09:38:58.358Z,17.00
2019-05-14T09:41:28.624Z,17.62
2019-05-14T09:43:55.707Z,18.57
2019-05-14T09:46:23.600Z,17.40
2019-05-14T09:48:51.440Z,18.32
2019-05-14T09:51:19.343Z,18.67
2019-05-14T09:53:48.954Z,16.42
2019-05-14T09:56:18.601Z,19.20
2019-05-14T09:58:49.234Z,19.50
2019-05-14T10:01:19.129Z,17.17
2019-05-14T10:03:46.130Z,19.02
2019-05-14T10:06:14.214Z,17.10
2019-05-14T10:08:42.074Z,16.57
2019-05-14T10:11:10.099Z,17.25
2019-05-14T10:13:39.365Z,17.67
2019-05-14T10:16:09.463Z,17.05
2019-05-14T10:18:38.063Z,17.87
2019-05-14T10:21:08.378Z,17.98
2019-05-14T10:23:35.642Z,18.32
2019-05-14T10:26:03.618Z,16.10
2019-05-14T10:28:31.467Z,20.50
2019-05-14T10:31:00.665Z,16.50
2019-05-14T10:33:29.014Z,16.37
2019-05-14T10:35:58.848Z,17.60
2019-05-14T10:38:29.254Z,19.50
2019-05-14T10:40:58.412Z,17.30
2019-05-14T10:43:28.761Z,17.23
2019-05-14T10:45:58.068Z,15.98
2019-05-14T10:48:25.675Z,15.72
2019-05-14T10:50:59.897Z,16.93
2019-05-14T10:53:24.224Z,16.73
2019-05-14T10:55:52.132Z,16.70
2019-05-14T10:58:20.036Z,15.10
2019-05-14T11:00:49.529Z,16.02
2019-05-14T11:03:18.578Z,16.67
2019-05-14T11:05:48.204Z,15.88
2019-05-14T11:08:18.709Z,19.65
2019-05-14T11:10:45.803Z,16.45
2019-05-14T11:13:13.761Z,15.80
2019-05-14T11:15:41.620Z,15.55
2019-05-14T11:18:09.599Z,16.30
2019-05-14T11:20:41.706Z,15.50
2019-05-14T11:23:08.912Z,15.88
2019-05-14T11:25:38.376Z,16.97
2019-05-14T11:28:06.451Z,17.02
2019-05-14T11:30:34.330Z,15.80
2019-05-14T11:33:02.236Z,17.23
2019-05-14T11:35:30.098Z,17.75
2019-05-14T11:37:58.892Z,16.87
2019-05-14T11:40:29.129Z,17.02
2019-05-14T11:42:58.978Z,16.02
2019-05-14T11:45:26.540Z,17.95
2019-05-14T11:47:54.421Z,17.87
2019-05-14T11:50:22.317Z,16.32
2019-05-14T11:52:50.134Z,15.63
2019-05-14T11:55:18.887Z,16.52
2019-05-14T11:57:48.525Z,16.62
2019-05-14T12:00:19.484Z,16.50
2019-05-14T12:02:46.770Z,16.42
2019-05-14T12:05:14.942Z,15.83
2019-05-14T12:07:42.772Z,14.83
2019-05-14T12:10:10.747Z,20.90
2019-05-14T12:12:38.615Z,14.90
2019-05-14T12:15:08.727Z,16.55
2019-05-14T12:17:38.997Z,15.48
2019-05-14T12:20:05.906Z,16.17
2019-05-14T12:22:33.750Z,15.45
2019-05-14T12:25:01.622Z,16.37
2019-05-14T12:27:29.425Z,16.35
2019-05-14T12:29:59.893Z,15.30
2019-05-14T12:32:29.383Z,15.23
2019-05-14T12:34:59.200Z,15.38
2019-05-14T12:37:25.923Z,16.60
2019-05-14T12:39:53.778Z,15.90
2019-05-14T12:42:21.699Z,14.73
2019-05-14T12:44:49.609Z,15.38
2019-05-14T12:47:18.807Z,17.27
2019-05-14T12:49:48.341Z,16.42
2019-05-14T12:52:24.772Z,14.65
2019-05-14T12:54:45.955Z,16.40
2019-05-14T12:57:13.826Z,15.63
2019-05-14T12:59:41.631Z,14.58
2019-05-14T13:02:09.882Z,17.40
2019-05-14T13:04:37.906Z,15.08
2019-05-14T13:07:05.766Z,15.72
2019-05-14T13:09:33.579Z,15.45
2019-05-14T13:12:01.458Z,14.90
2019-05-14T13:14:29.307Z,15.10
2019-05-14T13:16:59.586Z,16.00
2019-05-14T13:19:28.490Z,15.70
2019-05-14T13:22:09.974Z,15.90
2019-05-14T13:24:28.639Z,14.85
2019-05-14T13:26:58.612Z,15.15
2019-05-14T13:29:25.381Z,17.82
2019-05-14T13:31:53.310Z,14.30
2019-05-14T13:34:21.148Z,14.65
2019-05-14T13:36:49.011Z,14.15
2019-05-14T13:39:19.211Z,15.28
2019-05-14T13:41:48.673Z,15.10
2019-05-14T13:44:24.297Z,16.07
2019-05-14T13:46:48.442Z,15.55
2019-05-14T13:49:15.259Z,15.38
2019-05-14T13:51:43.091Z,14.20
2019-05-14T13:54:10.972Z,14.60
2019-05-14T13:56:39.109Z,15.20
2019-05-14T13:59:09.164Z,14.98
2019-05-14T14:01:36.732Z,14.55
2019-05-14T14:04:11.471Z,15.90
2019-05-14T14:06:34.323Z,15.63
2019-05-14T14:09:02.218Z,14.10
2019-05-14T14:11:31.890Z,14.58
2019-05-14T14:13:59.759Z,14.95
2019-05-14T14:16:30.799Z,14.70
2019-05-14T14:19:03.243Z,14.95
2019-05-14T14:21:30.153Z,15.48
2019-05-14T14:23:59.338Z,16.37
2019-05-14T14:26:29.131Z,14.53
2019-05-14T14:28:59.706Z,14.50
2019-05-14T14:31:28.442Z,14.53
2019-05-14T14:33:56.158Z,16.97
2019-05-14T14:36:23.982Z,18.07
2019-05-14T14:38:51.873Z,14.35
2019-05-14T14:41:19.860Z,15.50
2019-05-14T14:43:53.441Z,15.60
2019-05-14T14:46:19.636Z,14.63
2019-05-14T14:48:49.287Z,15.18
2019-05-14T14:51:18.963Z,14.05
2019-05-14T14:53:58.446Z,14.30
2019-05-14T14:56:15.750Z,13.95
2019-05-14T14:58:43.645Z,14.40
2019-05-14T15:01:11.494Z,15.20
2019-05-14T15:03:39.372Z,13.62
2019-05-14T15:06:09.647Z,14.03
2019-05-14T15:08:38.976Z,15.10
2019-05-14T15:11:08.572Z,15.10
2019-05-14T15:13:35.961Z,14.80
2019-05-14T15:16:03.842Z,15.08
2019-05-14T15:18:31.718Z,14.70
2019-05-14T15:20:59.627Z,14.78
2019-05-14T15:23:28.633Z,14.00
2019-05-14T15:25:58.882Z,14.43
2019-05-14T15:28:27.501Z,17.77
2019-05-14T15:30:59.292Z,15.15
2019-05-14T15:33:26.085Z,14.50
2019-05-14T15:35:58.252Z,15.70
2019-05-14T15:38:30.335Z,15.08
2019-05-14T15:40:56.100Z,17.02
2019-05-14T15:43:23.985Z,14.10
2019-05-14T15:45:54.315Z,14.00
2019-05-14T15:48:24.196Z,13.90
2019-05-14T15:50:52.187Z,13.78
2019-05-14T15:53:20.119Z,14.33
2019-05-14T15:55:49.084Z,13.55
2019-05-14T15:58:21.339Z,13.85
2019-05-14T16:00:50.241Z,15.85
2019-05-14T16:03:18.816Z,15.20
2019-05-14T16:05:48.820Z,14.98
2019-05-14T16:08:18.862Z,14.68
2019-05-14T16:10:46.675Z,13.65
2019-05-14T16:13:15.621Z,14.25
2019-05-14T16:15:44.671Z,13.83
2019-05-14T16:18:18.647Z,14.40
2019-05-14T16:20:44.201Z,13.80
2019-05-14T16:23:15.219Z,13.58
2019-05-14T16:25:43.207Z,13.95
2019-05-14T16:28:11.104Z,14.80
2019-05-14T16:30:44.207Z,13.75
2019-05-14T16:33:12.171Z,15.00
2019-05-14T16:35:41.909Z,13.62
2019-05-14T16:38:09.876Z,14.50
2019-05-14T16:40:39.595Z,13.93
2019-05-14T16:43:07.431Z,14.30
2019-05-14T16:45:39.561Z,14.15
2019-05-14T16:48:10.958Z,14.13
2019-05-14T16:50:37.230Z,15.78
2019-05-14T16:53:05.091Z,14.15
2019-05-14T16:55:32.971Z,14.85
2019-05-14T16:58:01.880Z,14.40
2019-05-14T17:00:30.380Z,13.75
2019-05-14T17:03:00.700Z,14.20
2019-05-14T17:05:29.861Z,13.95
2019-05-14T17:07:58.822Z,13.95
2019-05-14T17:10:28.661Z,14.75
2019-05-14T17:12:58.754Z,16.15
2019-05-14T17:15:29.444Z,14.28
2019-05-14T17:17:59.635Z,16.27
2019-05-14T17:20:28.113Z,14.03
2019-05-14T17:22:55.958Z,15.15
2019-05-14T17:25:27.109Z,13.65
2019-05-14T17:27:53.639Z,13.88
2019-05-14T17:30:21.815Z,14.00
2019-05-14T17:32:49.697Z,13.90
2019-05-14T17:35:20.079Z,14.10
2019-05-14T17:37:50.388Z,14.18
2019-05-14T17:40:25.647Z,14.15
2019-05-14T17:42:53.637Z,13.90
2019-05-14T17:45:24.751Z,13.70
2019-05-14T17:47:53.742Z,14.80
2019-05-14T17:50:21.780Z,14.55
2019-05-14T17:52:56.249Z,15.20
2019-05-14T17:55:19.821Z,15.60
2019-05-14T17:57:56.798Z,14.07
2019-05-14T18:00:20.028Z,14.93
2019-05-14T18:02:49.051Z,14.20
2019-05-14T18:05:18.814Z,13.60
2019-05-14T18:07:48.549Z,14.23
2019-05-14T18:10:19.459Z,13.55
2019-05-14T18:12:50.186Z,14.40
2019-05-14T18:15:20.919Z,14.90
2019-05-14T18:17:54.406Z,14.25
2019-05-14T18:20:39.171Z,14.10
2019-05-14T18:23:14.342Z,13.95
2019-05-14T18:26:08.708Z,15.25
2019-05-14T18:28:34.657Z,13.65
2019-05-14T18:31:02.825Z,13.95
2019-05-14T18:33:31.449Z,14.25
2019-05-14T18:36:01.238Z,14.53
2019-05-14T18:38:29.228Z,14.28
2019-05-14T18:40:58.645Z,17.55
2019-05-14T18:43:28.905Z,15.93
2019-05-14T18:45:58.693Z,14.83
2019-05-14T18:48:29.023Z,15.00
2019-05-14T18:50:59.236Z,14.95
2019-05-14T18:53:28.123Z,15.30
2019-05-14T18:55:56.529Z,17.32
2019-05-14T18:58:26.133Z,14.80
2019-05-14T19:00:54.429Z,14.20
2019-05-14T19:03:28.562Z,14.47
2019-05-14T19:05:58.559Z,14.28
2019-05-14T19:08:28.622Z,14.40
2019-05-14T19:10:56.233Z,14.23
2019-05-14T19:13:28.013Z,14.70
2019-05-14T19:15:55.528Z,14.03
2019-05-14T19:18:23.614Z,15.32
2019-05-14T19:20:51.612Z,15.23
2019-05-14T19:23:20.243Z,14.35
2019-05-14T19:25:50.384Z,15.18
2019-05-14T19:28:18.907Z,14.20
2019-05-14T19:30:48.784Z,14.73
2019-05-14T19:33:20.534Z,15.00
2019-05-14T19:35:48.474Z,14.20
2019-05-14T19:38:17.925Z,14.50
2019-05-14T19:40:48.341Z,14.53
2019-05-14T19:43:18.931Z,14.18
2019-05-14T19:45:48.736Z,14.10
2019-05-14T19:48:18.751Z,14.40
2019-05-14T19:50:48.859Z,14.98
2019-05-14T19:53:16.734Z,14.15
2019-05-14T19:55:45.395Z,15.68
2019-05-14T20:01:19.179Z,15.60
2019-05-14T20:03:48.375Z,15.08
2019-05-14T20:06:18.508Z,16.70
2019-05-14T20:08:48.079Z,15.48
2019-05-14T20:11:15.697Z,16.45
2019-05-14T20:13:44.244Z,14.83
2019-05-14T20:16:12.407Z,15.72
2019-05-14T20:18:40.446Z,14.98
2019-05-14T20:21:08.795Z,15.70
2019-05-14T20:23:38.675Z,16.52
2019-05-14T20:26:08.277Z,15.50
2019-05-14T20:28:38.805Z,15.50
2019-05-14T20:31:09.961Z,14.95
2019-05-14T20:33:40.002Z,15.13
2019-05-14T20:36:08.390Z,15.65
2019-05-14T20:38:38.606Z,18.12
2019-05-14T20:41:06.138Z,15.00
2019-05-14T20:43:34.091Z,15.25
2019-05-14T20:46:02.965Z,15.00
2019-05-14T20:48:32.319Z,15.35
2019-05-14T20:51:03.565Z,15.58
2019-05-14T20:53:32.209Z,15.20
2019-05-14T20:56:00.969Z,15.00
2019-05-14T20:58:29.190Z,16.93
2019-05-14T21:00:57.213Z,15.65
2019-05-14T21:03:26.225Z,14.65
2019-05-14T21:05:55.397Z,15.00
2019-05-14T21:08:23.959Z,15.45
2019-05-14T21:10:53.014Z,15.03
2019-05-14T21:13:21.551Z,15.90
2019-05-14T21:15:51.137Z,14.90
2019-05-14T21:18:34.208Z,15.03
2019-05-14T21:20:49.627Z,16.23
2019-05-14T21:23:18.331Z,16.12
2019-05-14T21:25:48.361Z,15.70
2019-05-14T21:28:16.009Z,15.65
2019-05-14T21:30:45.147Z,15.70
2019-05-14T21:33:13.328Z,15.72
2019-05-14T21:35:43.738Z,20.97
2019-05-14T21:38:11.617Z,15.50
2019-05-14T21:40:42.014Z,16.27
2019-05-14T21:43:11.593Z,15.53
2019-05-14T21:45:40.344Z,16.25
2019-05-14T21:48:08.779Z,15.70
2019-05-14T21:50:38.817Z,17.45
2019-05-14T21:53:08.511Z,16.25
2019-05-14T21:55:38.769Z,15.40
2019-05-14T21:58:09.092Z,15.65
2019-05-14T22:00:42.452Z,16.32
2019-05-14T22:03:10.995Z,16.00
2019-05-14T22:05:39.409Z,16.00
2019-05-14T22:08:09.483Z,15.48
2019-05-14T22:10:39.566Z,16.42
2019-05-14T22:13:07.054Z,16.77
2019-05-14T22:15:38.640Z,15.88
2019-05-14T22:18:16.534Z,17.30
2019-05-14T22:20:35.711Z,16.85
2019-05-14T22:23:04.964Z,17.15
2019-05-14T22:25:35.737Z,15.80
2019-05-14T22:28:12.343Z,15.10
2019-05-14T22:30:38.612Z,15.80
2019-05-14T22:33:08.198Z,18.25
2019-05-14T22:35:39.720Z,15.98
2019-05-14T22:38:07.983Z,14.78
2019-05-14T22:40:35.971Z,15.95
2019-05-14T22:43:03.898Z,14.93
2019-05-14T22:45:31.775Z,14.90
2019-05-14T22:47:59.758Z,15.25
2019-05-14T22:50:29.384Z,15.00
2019-05-14T22:52:58.430Z,15.75
2019-05-14T22:55:30.954Z,15.30
2019-05-14T22:57:59.267Z,15.30
2019-05-14T23:00:28.688Z,15.28
2019-05-14T23:02:59.022Z,15.58
2019-05-14T23:05:29.041Z,16.25
2019-05-14T23:07:58.262Z,15.98
2019-05-14T23:10:26.260Z,15.75
2019-05-14T23:12:54.181Z,14.70
2019-05-14T23:15:22.124Z,15.18
2019-05-14T23:17:50.155Z,14.33
2019-05-14T23:20:19.629Z,15.20
2019-05-14T23:22:49.218Z,15.85
2019-05-14T23:25:18.457Z,14.35
2019-05-14T23:27:48.144Z,14.70
2019-05-14T23:30:19.569Z,14.73
2019-05-14T23:32:49.060Z,14.98
2019-05-14T23:35:18.864Z,14.10
2019-05-14T23:37:48.931Z,14.45
2019-05-14T23:40:17.360Z,16.70
2019-05-14T23:42:45.225Z,14.90
2019-05-14T23:45:13.178Z,15.30
2019-05-14T23:47:41.123Z,15.70
2019-05-14T23:50:09.088Z,16.37
2019-05-14T23:52:38.732Z,15.70
2019-05-14T23:55:08.590Z,15.20
2019-05-14T23:57:36.797Z,15.40
